Time;durP1;ratioP1;P1;durP2;ratioP2;P2;SDS_P1;SDS_P2;PMS_P1;PMS_P2;Temp;Humidity;BMP_temperature;BMP_pressure;BME280_temperature;BME280_humidity;BME280_pressure;Samples;Min_cycle;Max_cycle;Signal;HPM_P1;HPM_P2
2022/09/04 00:02:29;;;;;;;4.10;2.17;;;;;;;;;;5025364;28;20207;-48
2022/09/04 00:05:25;;;;;;;2.90;2.33;;;;;;;;;;5047091;28;20214;-48
2022/09/04 00:07:58;;;;;;;2.10;1.90;;;;;;;;;;5037362;28;20226;-51
2022/09/04 00:10:41;;;;;;;2.20;1.93;;;;;;;;;;5037512;28;20206;-52
2022/09/04 00:13:22;;;;;;;2.50;1.80;;;;;;;;;;5043584;28;20225;-49
2022/09/04 00:16:11;;;;;;;2.57;2.37;;;;;;;;;;5044037;28;20642;-48
2022/09/04 00:19:01;;;;;;;4.47;2.10;;;;;;;;;;5041583;28;20214;-51
2022/09/04 00:21:42;;;;;;;3.10;2.17;;;;;;;;;;5047174;28;20199;-49
2022/09/04 00:24:17;;;;;;;3.00;2.20;;;;;;;;;;5046045;28;20280;-48
2022/09/04 00:26:56;;;;;;;2.53;2.10;;;;;;;;;;5045074;28;20462;-48
2022/09/04 00:29:37;;;;;;;2.93;2.03;;;;;;;;;;5042804;28;20621;-51
2022/09/04 00:32:37;;;;;;;2.37;1.90;;;;;;;;;;5045189;28;20257;-48
2022/09/04 00:35:30;;;;;;;2.47;1.80;;;;;;;;;;5049032;28;20199;-51
2022/09/04 00:38:02;;;;;;;2.50;1.70;;;;;;;;;;5043336;28;20634;-52
2022/09/04 00:40:34;;;;;;;1.83;1.60;;;;;;;;;;5037537;28;20206;-53
2022/09/04 00:43:26;;;;;;;3.27;1.70;;;;;;;;;;5041513;28;20196;-54
2022/09/04 00:46:03;;;;;;;2.47;1.80;;;;;;;;;;5036438;28;20203;-52
2022/09/04 00:48:41;;;;;;;2.73;1.60;;;;;;;;;;5021780;28;20223;-53
2022/09/04 00:51:29;;;;;;;2.27;2.00;;;;;;;;;;5044469;28;20202;-53
2022/09/04 00:54:08;;;;;;;2.60;2.00;;;;;;;;;;5059162;28;20678;-52
2022/09/04 00:56:59;;;;;;;2.37;1.70;;;;;;;;;;5041464;28;20221;-52
2022/09/04 00:59:46;;;;;;;2.13;1.70;;;;;;;;;;5045180;28;20572;-55
2022/09/04 01:02:40;;;;;;;3.07;1.83;;;;;;;;;;5058232;28;20195;-49
2022/09/04 01:05:26;;;;;;;2.23;1.53;;;;;;;;;;5042576;28;20637;-54
2022/09/04 01:08:08;;;;;;;2.73;1.67;;;;;;;;;;5045430;28;20215;-55
2022/09/04 01:10:58;;;;;;;1.97;1.50;;;;;;;;;;5034087;28;20235;-51
2022/09/04 01:13:35;;;;;;;3.60;1.80;;;;;;;;;;5042131;28;20202;-51
2022/09/04 01:16:10;;;;;;;2.37;1.87;;;;;;;;;;5042303;28;20220;-52
2022/09/04 01:18:47;;;;;;;3.37;1.63;;;;;;;;;;5055373;28;20216;-53
2022/09/04 01:21:34;;;;;;;3.10;1.67;;;;;;;;;;5042657;28;20202;-52
2022/09/04 01:24:29;;;;;;;2.10;1.80;;;;;;;;;;5045064;28;20678;-52
2022/09/04 01:27:14;;;;;;;2.60;2.00;;;;;;;;;;5054237;28;20252;-53
2022/09/04 01:30:13;;;;;;;2.20;1.70;;;;;;;;;;5039366;28;20249;-53
2022/09/04 01:32:58;;;;;;;2.83;1.70;;;;;;;;;;5043659;28;20205;-54
2022/09/04 01:35:49;;;;;;;2.03;1.83;;;;;;;;;;5041360;28;20673;-55
2022/09/04 01:38:27;;;;;;;2.67;1.70;;;;;;;;;;5043243;28;20223;-53
2022/09/04 01:41:14;;;;;;;2.13;1.75;;;;;;;;;;5058339;28;20202;-51
2022/09/04 01:43:41;;;;;;;2.00;1.73;;;;;;;;;;5037116;28;20202;-54
2022/09/04 01:46:23;;;;;;;2.05;1.77;;;;;;;;;;5040928;28;20229;-53
2022/09/04 01:48:59;;;;;;;2.38;1.90;;;;;;;;;;5044211;28;20280;-48
2022/09/04 01:51:39;;;;;;;3.80;1.70;;;;;;;;;;5044660;28;21560;-50
2022/09/04 01:54:43;;;;;;;2.80;1.63;;;;;;;;;;5042244;28;20249;-55
2022/09/04 01:57:48;;;;;;;2.30;1.80;;;;;;;;;;5042808;28;20240;-51
2022/09/04 02:00:22;;;;;;;2.17;1.70;;;;;;;;;;5044526;28;20194;-49
2022/09/04 02:02:53;;;;;;;1.77;1.60;;;;;;;;;;5043666;28;20198;-48
2022/09/04 02:05:28;;;;;;;2.60;1.60;;;;;;;;;;5045596;28;20674;-51
2022/09/04 02:08:31;;;;;;;2.53;1.63;;;;;;;;;;5063750;28;20218;-49
2022/09/04 02:11:17;;;;;;;2.60;1.80;;;;;;;;;;5042450;28;20245;-49
2022/09/04 02:14:07;;;;;;;1.63;1.53;;;;;;;;;;5048323;28;20203;-51
2022/09/04 02:16:55;;;;;;;2.73;1.80;;;;;;;;;;5046816;28;20556;-53
2022/09/04 02:19:44;;;;;;;3.67;1.80;;;;;;;;;;5047075;28;20203;-50
2022/09/04 02:22:16;;;;;;;1.80;1.70;;;;;;;;;;5040348;28;20578;-52
2022/09/04 02:24:55;;;;;;;2.37;1.90;;;;;;;;;;5046417;28;20206;-52
2022/09/04 02:27:49;;;;;;;2.10;1.90;;;;;;;;;;5039566;28;20219;-54
2022/09/04 02:30:18;;;;;;;2.43;1.80;;;;;;;;;;5061912;28;20207;-48
2022/09/04 02:33:04;;;;;;;2.53;1.80;;;;;;;;;;5042846;28;20245;-51
2022/09/04 02:35:37;;;;;;;2.17;1.70;;;;;;;;;;5042642;28;20199;-50
2022/09/04 02:38:23;;;;;;;2.63;1.70;;;;;;;;;;5045183;28;20215;-48
2022/09/04 02:41:29;;;;;;;2.83;2.00;;;;;;;;;;5044202;28;20241;-51
2022/09/04 02:44:14;;;;;;;2.83;1.77;;;;;;;;;;5016587;28;20202;-49
2022/09/04 02:47:00;;;;;;;2.23;1.50;;;;;;;;;;5039669;28;20405;-49
2022/09/04 02:49:58;;;;;;;3.43;1.90;;;;;;;;;;5041090;28;20565;-49
2022/09/04 02:53:02;;;;;;;3.90;1.87;;;;;;;;;;5048927;28;20221;-49
2022/09/04 02:56:07;;;;;;;3.00;2.03;;;;;;;;;;5046521;28;20198;-49
2022/09/04 02:58:49;;;;;;;2.17;1.60;;;;;;;;;;5046126;28;20238;-52
2022/09/04 03:01:44;;;;;;;1.93;1.73;;;;;;;;;;5043019;28;20203;-51
2022/09/04 03:04:54;;;;;;;2.40;1.70;;;;;;;;;;5038596;28;20215;-52
2022/09/04 03:07:32;;;;;;;2.80;1.55;;;;;;;;;;5039943;28;20222;-51
2022/09/04 03:10:10;;;;;;;2.20;1.90;;;;;;;;;;5046328;28;20191;-51
2022/09/04 03:12:55;;;;;;;2.10;1.83;;;;;;;;;;5044124;28;20194;-50
2022/09/04 03:15:37;;;;;;;3.17;2.33;;;;;;;;;;5049574;28;20203;-51
2022/09/04 03:18:09;;;;;;;2.87;1.90;;;;;;;;;;5043928;28;20210;-55
2022/09/04 03:20:47;;;;;;;2.13;1.80;;;;;;;;;;5040141;28;20205;-55
2022/09/04 03:23:28;;;;;;;3.07;1.93;;;;;;;;;;5041479;28;20645;-54
2022/09/04 03:26:04;;;;;;;2.97;2.43;;;;;;;;;;5049153;28;20268;-53
2022/09/04 03:29:00;;;;;;;3.67;2.15;;;;;;;;;;5043985;28;20280;-53
2022/09/04 03:32:07;;;;;;;3.37;2.10;;;;;;;;;;5047163;28;20240;-55
2022/09/04 03:35:00;;;;;;;3.67;2.17;;;;;;;;;;5031512;28;20218;-55
2022/09/04 03:37:36;;;;;;;4.15;2.40;;;;;;;;;;5043208;28;20226;-48
2022/09/04 03:40:31;;;;;;;2.63;2.00;;;;;;;;;;5042985;28;20195;-52
2022/09/04 03:43:13;;;;;;;7.18;2.70;;;;;;;;;;5043044;28;20261;-49
2022/09/04 03:46:09;;;;;;;4.53;2.33;;;;;;;;;;5049863;28;20199;-49
2022/09/04 03:48:55;;;;;;;5.60;2.35;;;;;;;;;;5041601;28;20761;-56
2022/09/04 03:51:40;;;;;;;3.60;1.90;;;;;;;;;;5040366;28;20199;-50
2022/09/04 03:54:16;;;;;;;2.25;1.92;;;;;;;;;;5047562;28;20248;-51
2022/09/04 03:57:03;;;;;;;5.70;2.30;;;;;;;;;;5038812;28;20202;-49
2022/09/04 03:59:57;;;;;;;3.42;2.15;;;;;;;;;;5047485;28;20215;-49
2022/09/04 04:02:26;;;;;;;2.92;2.22;;;;;;;;;;5043156;28;20264;-51
2022/09/04 04:04:59;;;;;;;4.20;2.00;;;;;;;;;;5041624;28;20227;-52
2022/09/04 04:07:50;;;;;;;4.60;2.78;;;;;;;;;;5041680;28;20219;-51
2022/09/04 04:10:44;;;;;;;5.15;2.83;;;;;;;;;;5040545;28;20753;-50
2022/09/04 04:13:30;;;;;;;7.15;2.97;;;;;;;;;;5037544;28;20199;-50
2022/09/04 04:16:19;;;;;;;6.93;3.00;;;;;;;;;;5042734;28;20663;-50
2022/09/04 04:19:02;;;;;;;6.30;3.55;;;;;;;;;;5031476;28;20218;-53
2022/09/04 04:21:56;;;;;;;6.23;3.50;;;;;;;;;;5040221;28;20674;-49
2022/09/04 04:24:31;;;;;;;7.07;3.50;;;;;;;;;;5046227;28;20260;-53
2022/09/04 04:27:36;;;;;;;4.40;2.97;;;;;;;;;;5045714;28;20259;-49
2022/09/04 04:30:15;;;;;;;4.00;2.85;;;;;;;;;;5027284;28;20198;-49
2022/09/04 04:32:42;;;;;;;6.13;3.70;;;;;;;;;;5041017;28;20198;-55
2022/09/04 04:35:11;;;;;;;7.80;3.60;;;;;;;;;;5046356;28;21708;-50
2022/09/04 04:37:59;;;;;;;7.85;3.60;;;;;;;;;;5038196;28;20732;-50
2022/09/04 04:40:31;;;;;;;7.90;4.30;;;;;;;;;;5044354;28;20194;-52
2022/09/04 04:43:12;;;;;;;6.72;3.95;;;;;;;;;;5039763;28;20392;-49
2022/09/04 04:46:02;;;;;;;7.93;4.40;;;;;;;;;;5043681;28;20213;-48
2022/09/04 04:48:51;;;;;;;12.65;4.97;;;;;;;;;;5041743;28;20245;-54
2022/09/04 04:51:44;;;;;;;8.67;4.50;;;;;;;;;;5040097;28;20459;-48
2022/09/04 04:54:25;;;;;;;8.47;4.20;;;;;;;;;;5038992;28;20202;-52
2022/09/04 04:57:13;;;;;;;8.77;3.72;;;;;;;;;;5037940;28;20202;-49
2022/09/04 04:59:55;;;;;;;8.30;3.60;;;;;;;;;;5036248;28;20207;-49
2022/09/04 05:02:29;;;;;;;9.85;4.82;;;;;;;;;;5046017;28;20214;-49
2022/09/04 05:05:16;;;;;;;14.03;5.23;;;;;;;;;;5037598;28;20206;-49
2022/09/04 05:07:51;;;;;;;8.40;4.43;;;;;;;;;;5041979;28;20279;-51
2022/09/04 05:10:24;;;;;;;8.23;4.67;;;;;;;;;;5041936;28;20703;-53
2022/09/04 05:12:58;;;;;;;11.03;5.47;;;;;;;;;;5044314;28;20217;-49
2022/09/04 05:15:36;;;;;;;10.27;4.40;;;;;;;;;;5040302;28;20197;-49
2022/09/04 05:18:41;;;;;;;9.43;5.07;;;;;;;;;;5046063;28;20682;-50
2022/09/04 05:21:21;;;;;;;8.37;4.77;;;;;;;;;;5039091;28;20269;-49
2022/09/04 05:23:58;;;;;;;9.00;4.60;;;;;;;;;;5044377;28;20210;-52
2022/09/04 05:26:45;;;;;;;10.67;4.83;;;;;;;;;;5056062;28;20198;-49
2022/09/04 05:29:19;;;;;;;8.95;4.47;;;;;;;;;;5030593;28;20227;-51
2022/09/04 05:32:04;;;;;;;12.30;4.55;;;;;;;;;;5041499;28;20198;-49
2022/09/04 05:34:47;;;;;;;8.13;4.23;;;;;;;;;;5042209;28;20199;-52
2022/09/04 05:37:18;;;;;;;8.23;4.47;;;;;;;;;;5022760;28;20194;-50
2022/09/04 05:40:09;;;;;;;7.03;3.67;;;;;;;;;;5036726;28;20670;-49
2022/09/04 05:43:13;;;;;;;6.63;3.70;;;;;;;;;;5050582;28;20205;-55
2022/09/04 05:46:04;;;;;;;5.90;3.22;;;;;;;;;;5047448;28;20202;-54
2022/09/04 05:48:36;;;;;;;9.32;3.85;;;;;;;;;;5046578;28;20222;-55
2022/09/04 05:51:27;;;;;;;8.40;4.60;;;;;;;;;;5041711;28;20195;-54
2022/09/04 05:54:13;;;;;;;11.70;4.30;;;;;;;;;;5030598;28;20199;-55
2022/09/04 05:57:03;;;;;;;6.57;3.60;;;;;;;;;;5059012;28;20203;-53
2022/09/04 06:00:03;;;;;;;8.60;4.53;;;;;;;;;;5044447;28;20386;-52
2022/09/04 06:02:44;;;;;;;10.87;4.43;;;;;;;;;;5017495;28;20650;-51
2022/09/04 06:05:21;;;;;;;5.73;3.77;;;;;;;;;;5047285;28;20449;-52
2022/09/04 06:07:54;;;;;;;9.07;4.13;;;;;;;;;;5039041;28;20276;-52
2022/09/04 06:10:51;;;;;;;7.30;4.45;;;;;;;;;;5046488;28;20218;-50
2022/09/04 06:13:36;;;;;;;6.32;3.97;;;;;;;;;;5042035;28;20249;-53
2022/09/04 06:16:17;;;;;;;8.75;3.75;;;;;;;;;;5051263;28;20199;-49
2022/09/04 06:18:56;;;;;;;7.57;3.65;;;;;;;;;;5045300;28;20242;-49
2022/09/04 06:21:29;;;;;;;11.90;4.00;;;;;;;;;;5047732;28;20253;-50
2022/09/04 06:24:23;;;;;;;9.32;3.58;;;;;;;;;;5042883;28;20634;-53
2022/09/04 06:27:07;;;;;;;6.95;4.13;;;;;;;;;;5042996;28;20199;-53
2022/09/04 06:30:02;;;;;;;8.13;4.40;;;;;;;;;;5042478;28;20221;-53
2022/09/04 06:32:47;;;;;;;6.38;4.07;;;;;;;;;;5042967;28;20211;-52
2022/09/04 06:35:31;;;;;;;5.57;2.78;;;;;;;;;;5035268;28;20250;-51
2022/09/04 06:38:24;;;;;;;7.82;4.43;;;;;;;;;;5046823;28;20219;-55
2022/09/04 06:41:24;;;;;;;8.25;4.15;;;;;;;;;;5030191;28;20216;-50
2022/09/04 06:44:00;;;;;;;6.45;3.78;;;;;;;;;;5046884;28;20199;-52
2022/09/04 06:46:34;;;;;;;8.93;3.72;;;;;;;;;;5045006;28;20229;-51
2022/09/04 06:49:21;;;;;;;3.83;2.72;;;;;;;;;;5045852;28;20215;-53
2022/09/04 06:51:59;;;;;;;4.82;2.92;;;;;;;;;;5063853;28;20613;-51
2022/09/04 06:54:58;;;;;;;5.30;3.15;;;;;;;;;;5042376;28;20963;-52
2022/09/04 06:57:48;;;;;;;4.13;2.40;;;;;;;;;;5048515;28;20249;-53
2022/09/04 07:00:16;;;;;;;4.15;2.20;;;;;;;;;;5048228;28;20210;-52
2022/09/04 07:02:55;;;;;;;3.97;2.55;;;;;;;;;;5044365;28;20208;-51
2022/09/04 07:05:21;;;;;;;4.55;3.13;;;;;;;;;;5038216;28;20321;-49
2022/09/04 07:08:13;;;;;;;5.32;3.22;;;;;;;;;;5036402;28;20222;-52
2022/09/04 07:10:44;;;;;;;5.53;3.08;;;;;;;;;;5042188;28;20198;-51
2022/09/04 07:13:23;;;;;;;5.80;3.20;;;;;;;;;;5042274;28;20261;-53
2022/09/04 07:16:24;;;;;;;5.25;3.15;;;;;;;;;;5044245;28;20230;-49
2022/09/04 07:19:14;;;;;;;5.80;3.72;;;;;;;;;;5045650;28;20219;-49
2022/09/04 07:22:16;;;;;;;4.70;3.10;;;;;;;;;;5054202;28;20203;-54
2022/09/04 07:24:55;;;;;;;2.63;2.30;;;;;;;;;;5038871;28;20211;-51
2022/09/04 07:27:43;;;;;;;4.70;3.17;;;;;;;;;;5043415;28;20215;-54
2022/09/04 07:30:14;;;;;;;5.13;3.10;;;;;;;;;;5042772;28;20241;-49
2022/09/04 07:33:18;;;;;;;3.58;3.00;;;;;;;;;;5062208;28;20646;-49
2022/09/04 07:36:01;;;;;;;2.72;2.22;;;;;;;;;;5041625;28;20206;-51
2022/09/04 07:38:57;;;;;;;3.20;2.50;;;;;;;;;;5041282;28;20300;-49
2022/09/04 07:41:45;;;;;;;3.78;2.75;;;;;;;;;;5025332;28;20207;-52
2022/09/04 07:44:33;;;;;;;4.82;2.83;;;;;;;;;;5036329;28;20265;-49
2022/09/04 07:47:12;;;;;;;6.18;4.03;;;;;;;;;;5033259;28;20263;-57
2022/09/04 07:49:55;;;;;;;5.10;3.60;;;;;;;;;;5037710;28;20222;-49
2022/09/04 07:52:38;;;;;;;7.60;4.10;;;;;;;;;;5048180;28;20228;-51
2022/09/04 07:55:23;;;;;;;5.45;3.92;;;;;;;;;;4991450;28;20265;-52
2022/09/04 07:57:57;;;;;;;5.15;3.63;;;;;;;;;;5021212;28;20230;-49
2022/09/04 08:00:25;;;;;;;2.50;2.30;;;;;;;;;;5026892;28;20579;-50
2022/09/04 08:03:12;;;;;;;3.90;3.28;;;;;;;;;;5027490;28;20708;-50
2022/09/04 08:05:46;;;;;;;5.45;3.90;;;;;;;;;;5022768;28;20210;-53
2022/09/04 08:08:34;;;;;;;4.35;3.13;;;;;;;;;;5025389;28;20642;-52
2022/09/04 08:11:11;;;;;;;5.07;3.95;;;;;;;;;;5027773;28;20215;-56
2022/09/04 08:14:00;;;;;;;7.90;4.80;;;;;;;;;;5038994;28;20199;-55
2022/09/04 08:16:59;;;;;;;3.63;2.70;;;;;;;;;;5028006;28;20641;-52
2022/09/04 08:19:47;;;;;;;3.78;2.70;;;;;;;;;;5025052;28;20222;-52
2022/09/04 08:22:25;;;;;;;4.18;2.97;;;;;;;;;;5024840;28;20207;-52
2022/09/04 08:25:05;;;;;;;6.60;3.70;;;;;;;;;;5039793;28;20223;-52
2022/09/04 08:27:59;;;;;;;5.47;3.40;;;;;;;;;;5036811;28;20621;-55
2022/09/04 08:30:31;;;;;;;6.15;3.80;;;;;;;;;;5024759;28;20223;-53
2022/09/04 08:33:12;;;;;;;4.95;3.88;;;;;;;;;;5019674;28;20196;-53
2022/09/04 08:36:03;;;;;;;3.72;3.15;;;;;;;;;;5025051;28;20624;-52
2022/09/04 08:39:10;;;;;;;4.60;3.42;;;;;;;;;;5029659;28;20223;-53
2022/09/04 08:42:04;;;;;;;4.88;2.83;;;;;;;;;;5038263;28;20274;-51
2022/09/04 08:44:59;;;;;;;2.83;2.40;;;;;;;;;;5021268;28;20215;-51
2022/09/04 08:47:50;;;;;;;3.97;2.55;;;;;;;;;;5021051;28;20226;-53
2022/09/04 08:50:50;;;;;;;4.05;2.95;;;;;;;;;;5029373;28;20309;-53
2022/09/04 08:53:44;;;;;;;4.53;3.38;;;;;;;;;;5031980;28;20254;-51
2022/09/04 08:56:17;;;;;;;4.70;3.42;;;;;;;;;;5024925;28;20204;-52
2022/09/04 08:59:16;;;;;;;6.03;4.50;;;;;;;;;;5019295;28;20223;-48
2022/09/04 09:02:20;;;;;;;5.78;4.13;;;;;;;;;;5021574;28;20204;-51
2022/09/04 09:05:24;;;;;;;4.53;3.70;;;;;;;;;;5018396;28;20199;-50
2022/09/04 09:08:05;;;;;;;6.18;4.25;;;;;;;;;;5026974;28;20223;-49
2022/09/04 09:10:35;;;;;;;5.25;4.50;;;;;;;;;;5023500;28;20706;-50
2022/09/04 09:13:22;;;;;;;4.47;3.17;;;;;;;;;;5037753;28;20195;-49
2022/09/04 09:16:13;;;;;;;6.03;4.78;;;;;;;;;;5023773;28;20327;-51
2022/09/04 09:19:07;;;;;;;7.57;4.60;;;;;;;;;;5021384;28;20254;-48
2022/09/04 09:21:52;;;;;;;5.50;4.15;;;;;;;;;;5028831;28;20261;-48
2022/09/04 09:24:45;;;;;;;6.32;4.13;;;;;;;;;;5027137;28;20203;-51
2022/09/04 09:27:41;;;;;;;7.03;4.80;;;;;;;;;;5009570;28;20663;-49
2022/09/04 09:30:12;;;;;;;6.50;5.15;;;;;;;;;;5021834;28;22667;-53
2022/09/04 09:33:03;;;;;;;5.78;4.40;;;;;;;;;;5032246;28;20327;-48
2022/09/04 09:35:40;;;;;;;3.72;3.03;;;;;;;;;;5019821;28;20667;-50
2022/09/04 09:38:35;;;;;;;6.22;4.90;;;;;;;;;;5013086;28;20223;-48
2022/09/04 09:41:11;;;;;;;5.35;4.32;;;;;;;;;;5023135;28;20195;-51
2022/09/04 09:44:27;;;;;;;4.38;3.60;;;;;;;;;;5021956;28;20200;-54
2022/09/04 09:47:18;;;;;;;4.82;4.13;;;;;;;;;;4996921;28;21058;-49
2022/09/04 09:50:21;;;;;;;6.35;4.32;;;;;;;;;;5023521;28;20215;-49
2022/09/04 09:53:12;;;;;;;5.10;4.25;;;;;;;;;;5028710;28;20203;-51
2022/09/04 09:56:06;;;;;;;4.38;3.35;;;;;;;;;;5020916;28;20943;-51
2022/09/04 09:59:01;;;;;;;4.43;3.45;;;;;;;;;;5023518;28;20220;-51
2022/09/04 10:01:27;;;;;;;5.20;3.55;;;;;;;;;;5022729;28;20192;-46
2022/09/04 10:04:20;;;;;;;4.05;2.90;;;;;;;;;;5021202;28;20226;-51
2022/09/04 10:06:56;;;;;;;4.22;2.90;;;;;;;;;;5025560;28;20203;-51
2022/09/04 10:09:28;;;;;;;3.85;2.85;;;;;;;;;;5024707;28;20231;-51
2022/09/04 10:12:00;;;;;;;3.83;3.00;;;;;;;;;;5024626;28;20208;-51
2022/09/04 10:15:17;;;;;;;4.63;3.45;;;;;;;;;;5023690;28;20207;-50
2022/09/04 10:18:01;;;;;;;8.23;4.70;;;;;;;;;;5022970;28;20232;-47
2022/09/04 10:21:10;;;;;;;4.65;3.40;;;;;;;;;;5028909;28;20200;-48
2022/09/04 10:23:59;;;;;;;5.28;3.35;;;;;;;;;;5018455;28;20262;-49
2022/09/04 10:26:41;;;;;;;4.32;3.30;;;;;;;;;;5017373;28;20683;-47
2022/09/04 10:29:25;;;;;;;4.28;3.38;;;;;;;;;;5021455;28;20642;-51
2022/09/04 10:32:36;;;;;;;5.85;4.20;;;;;;;;;;5028766;28;20246;-49
2022/09/04 10:35:15;;;;;;;3.50;3.10;;;;;;;;;;5021011;28;20257;-47
2022/09/04 10:37:53;;;;;;;4.43;3.30;;;;;;;;;;5029112;28;20223;-50
2022/09/04 10:40:44;;;;;;;3.45;2.65;;;;;;;;;;5024213;28;20287;-53
2022/09/04 10:43:46;;;;;;;2.53;2.33;;;;;;;;;;5030914;28;20203;-50
2022/09/04 10:46:21;;;;;;;3.40;2.40;;;;;;;;;;5034421;28;20197;-52
2022/09/04 10:48:57;;;;;;;4.03;2.50;;;;;;;;;;5044590;28;20635;-49
2022/09/04 10:52:05;;;;;;;2.45;2.25;;;;;;;;;;5028746;28;20223;-51
2022/09/04 10:54:42;;;;;;;4.15;2.33;;;;;;;;;;5026919;28;20229;-54
2022/09/04 10:57:36;;;;;;;3.40;2.72;;;;;;;;;;5028559;28;20203;-54
2022/09/04 11:00:03;;;;;;;3.28;2.50;;;;;;;;;;5023419;28;20204;-52
2022/09/04 11:02:45;;;;;;;3.13;2.67;;;;;;;;;;5023964;28;20211;-56
2022/09/04 11:05:19;;;;;;;2.60;2.40;;;;;;;;;;5024693;28;20204;-52
2022/09/04 11:08:05;;;;;;;2.58;2.38;;;;;;;;;;5036253;28;20227;-51
2022/09/04 11:10:47;;;;;;;2.60;2.40;;;;;;;;;;5029057;28;20269;-54
2022/09/04 11:13:38;;;;;;;3.15;2.85;;;;;;;;;;5037263;28;20246;-54
2022/09/04 11:16:26;;;;;;;3.63;2.22;;;;;;;;;;5028094;28;20199;-54
2022/09/04 11:19:14;;;;;;;3.65;3.15;;;;;;;;;;5022668;28;20324;-48
2022/09/04 11:21:57;;;;;;;3.60;2.80;;;;;;;;;;5023896;28;20242;-52
2022/09/04 11:24:46;;;;;;;4.00;2.88;;;;;;;;;;5026300;28;20211;-48
2022/09/04 11:27:48;;;;;;;3.70;3.05;;;;;;;;;;5024266;28;20199;-51
2022/09/04 11:30:27;;;;;;;3.80;3.00;;;;;;;;;;5027714;28;20281;-52
2022/09/04 11:33:23;;;;;;;5.68;4.15;;;;;;;;;;5027677;28;20203;-50
2022/09/04 11:36:04;;;;;;;4.90;3.60;;;;;;;;;;5039031;28;20205;-48
2022/09/04 11:38:46;;;;;;;5.03;3.72;;;;;;;;;;5024237;28;20223;-50
2022/09/04 11:41:35;;;;;;;4.57;3.22;;;;;;;;;;5023424;28;20199;-48
2022/09/04 11:44:24;;;;;;;3.38;3.08;;;;;;;;;;5032809;28;20215;-49
2022/09/04 11:47:15;;;;;;;3.45;2.97;;;;;;;;;;5022475;28;20262;-47
2022/09/04 11:50:08;;;;;;;4.63;3.45;;;;;;;;;;5030355;28;20235;-49
2022/09/04 11:52:45;;;;;;;4.78;4.00;;;;;;;;;;5023534;28;20208;-47
2022/09/04 11:55:24;;;;;;;4.97;3.67;;;;;;;;;;5036845;28;20278;-53
2022/09/04 11:58:08;;;;;;;7.80;4.03;;;;;;;;;;5025414;28;20585;-49
2022/09/04 12:00:44;;;;;;;5.55;4.22;;;;;;;;;;5028045;28;20192;-50
2022/09/04 12:03:29;;;;;;;5.15;4.00;;;;;;;;;;5028283;28;20203;-48
2022/09/04 12:06:08;;;;;;;5.38;4.40;;;;;;;;;;5027810;28;20583;-48
2022/09/04 12:09:00;;;;;;;5.63;4.53;;;;;;;;;;5042279;28;20214;-48
2022/09/04 12:11:35;;;;;;;4.75;4.15;;;;;;;;;;5019881;28;20223;-46
2022/09/04 12:14:27;;;;;;;5.30;4.00;;;;;;;;;;5036650;28;20199;-49
2022/09/04 12:17:24;;;;;;;4.82;3.92;;;;;;;;;;5026696;28;20210;-51
2022/09/04 12:20:22;;;;;;;4.70;4.20;;;;;;;;;;5028247;28;20196;-52
2022/09/04 12:23:28;;;;;;;5.53;4.05;;;;;;;;;;5021006;28;20204;-51
2022/09/04 12:26:05;;;;;;;4.53;3.60;;;;;;;;;;5028885;28;20214;-54
2022/09/04 12:28:58;;;;;;;5.85;3.75;;;;;;;;;;5026669;28;20234;-55
2022/09/04 12:31:33;;;;;;;5.43;3.47;;;;;;;;;;5022664;28;20219;-51
2022/09/04 12:34:27;;;;;;;4.15;3.72;;;;;;;;;;5022970;28;20199;-52
2022/09/04 12:37:19;;;;;;;4.97;3.63;;;;;;;;;;5028848;28;20207;-52
2022/09/04 12:40:18;;;;;;;5.30;3.58;;;;;;;;;;5024246;28;20246;-50
2022/09/04 12:43:12;;;;;;;5.50;3.60;;;;;;;;;;5040401;28;20203;-52
2022/09/04 12:45:50;;;;;;;5.07;3.72;;;;;;;;;;5024573;28;20744;-52
2022/09/04 12:49:15;;;;;;;4.30;3.40;;;;;;;;;;5024022;28;20723;-52
2022/09/04 12:52:18;;;;;;;3.72;3.13;;;;;;;;;;5002004;28;20606;-50
2022/09/04 12:55:14;;;;;;;3.35;2.83;;;;;;;;;;5004545;28;20202;-53
2022/09/04 12:57:54;;;;;;;4.60;3.15;;;;;;;;;;5020017;28;20289;-49
2022/09/04 13:00:31;;;;;;;3.33;2.92;;;;;;;;;;5035217;28;20278;-51
2022/09/04 13:03:44;;;;;;;3.72;3.00;;;;;;;;;;5041561;28;20198;-52
2022/09/04 13:06:19;;;;;;;3.30;2.78;;;;;;;;;;5028611;28;20203;-52
2022/09/04 13:08:52;;;;;;;3.03;2.72;;;;;;;;;;5027339;28;20219;-53
2022/09/04 13:11:52;;;;;;;3.85;2.80;;;;;;;;;;5023956;28;20543;-52
2022/09/04 13:14:51;;;;;;;3.30;2.67;;;;;;;;;;5023041;28;20227;-52
2022/09/04 13:17:42;;;;;;;2.72;2.35;;;;;;;;;;5021209;28;20219;-56
2022/09/04 13:20:41;;;;;;;3.65;2.50;;;;;;;;;;5029556;28;20211;-49
2022/09/04 13:23:34;;;;;;;3.75;2.33;;;;;;;;;;5025556;28;20203;-52
2022/09/04 13:26:15;;;;;;;2.80;2.50;;;;;;;;;;5026024;28;20203;-49
2022/09/04 13:29:16;;;;;;;2.75;2.55;;;;;;;;;;5027693;28;20223;-52
2022/09/04 13:31:51;;;;;;;2.67;2.47;;;;;;;;;;5018560;28;20227;-53
2022/09/04 13:34:22;;;;;;;2.65;2.10;;;;;;;;;;5020369;28;20249;-52
2022/09/04 13:37:09;;;;;;;3.15;2.30;;;;;;;;;;5025350;28;20206;-52
2022/09/04 13:40:01;;;;;;;3.78;2.42;;;;;;;;;;5026786;28;20219;-53
2022/09/04 13:43:06;;;;;;;3.05;2.60;;;;;;;;;;5021795;28;20195;-53
2022/09/04 13:45:38;;;;;;;2.42;2.22;;;;;;;;;;5022759;28;20330;-52
2022/09/04 13:48:07;;;;;;;2.75;2.30;;;;;;;;;;5039094;28;20229;-52
2022/09/04 13:50:54;;;;;;;3.28;2.30;;;;;;;;;;5022072;28;20227;-53
2022/09/04 13:53:32;;;;;;;2.00;1.80;;;;;;;;;;5020729;28;20206;-51
2022/09/04 13:56:04;;;;;;;2.45;2.00;;;;;;;;;;5026342;28;20205;-55
2022/09/04 13:58:37;;;;;;;2.50;2.28;;;;;;;;;;5023150;28;20631;-51
2022/09/04 14:01:08;;;;;;;2.42;2.22;;;;;;;;;;5021069;28;20188;-52
2022/09/04 14:03:38;;;;;;;3.00;2.28;;;;;;;;;;5029823;28;20237;-54
2022/09/04 14:06:08;;;;;;;2.55;2.28;;;;;;;;;;5029818;28;20670;-53
2022/09/04 14:08:36;;;;;;;3.97;2.13;;;;;;;;;;5027669;28;20784;-52
2022/09/04 14:11:38;;;;;;;2.13;1.92;;;;;;;;;;5027912;28;20768;-52
2022/09/04 14:14:10;;;;;;;1.95;1.83;;;;;;;;;;5030596;28;20199;-53
2022/09/04 14:16:42;;;;;;;2.20;2.00;;;;;;;;;;5024881;28;20195;-52
2022/09/04 14:19:23;;;;;;;2.15;1.90;;;;;;;;;;5030607;28;20227;-52
2022/09/04 14:21:55;;;;;;;2.50;2.10;;;;;;;;;;5025988;28;20254;-52
2022/09/04 14:24:44;;;;;;;2.17;1.90;;;;;;;;;;5028778;28;20214;-55
2022/09/04 14:27:30;;;;;;;2.65;2.10;;;;;;;;;;5027716;28;20199;-51
2022/09/04 14:30:00;;;;;;;2.30;2.10;;;;;;;;;;5028192;28;20207;-54
2022/09/04 14:32:46;;;;;;;2.55;2.17;;;;;;;;;;5028456;28;20206;-52
2022/09/04 14:35:21;;;;;;;2.40;2.00;;;;;;;;;;5028555;28;20705;-52
2022/09/04 14:38:29;;;;;;;2.70;2.17;;;;;;;;;;5031779;28;20210;-49
2022/09/04 14:41:12;;;;;;;2.20;2.00;;;;;;;;;;5027618;28;20196;-52
2022/09/04 14:44:06;;;;;;;3.40;2.42;;;;;;;;;;5029695;28;20253;-52
2022/09/04 14:46:43;;;;;;;2.40;1.70;;;;;;;;;;5028745;28;20199;-50
2022/09/04 14:49:20;;;;;;;2.35;2.05;;;;;;;;;;5028747;28;20252;-53
2022/09/04 14:51:49;;;;;;;2.45;1.92;;;;;;;;;;5042264;28;20231;-52
2022/09/04 14:54:22;;;;;;;2.78;2.08;;;;;;;;;;5027040;28;20196;-52
2022/09/04 14:56:52;;;;;;;2.03;1.75;;;;;;;;;;5029091;28;20620;-53
2022/09/04 14:59:35;;;;;;;3.25;2.33;;;;;;;;;;5029350;28;20699;-52
2022/09/04 15:02:08;;;;;;;2.53;2.13;;;;;;;;;;5024603;28;20196;-53
2022/09/04 15:04:45;;;;;;;2.83;2.10;;;;;;;;;;5020314;28;20196;-54
2022/09/04 15:07:34;;;;;;;1.90;1.80;;;;;;;;;;5029269;28;20199;-51
2022/09/04 15:10:09;;;;;;;2.10;1.90;;;;;;;;;;5028015;28;20196;-51
2022/09/04 15:12:40;;;;;;;1.80;1.70;;;;;;;;;;5028642;28;20253;-54
2022/09/04 15:15:30;;;;;;;2.10;1.90;;;;;;;;;;5029999;28;20222;-54
2022/09/04 15:18:06;;;;;;;1.83;1.73;;;;;;;;;;5028201;28;20238;-49
2022/09/04 15:20:37;;;;;;;2.40;1.73;;;;;;;;;;5026934;28;20188;-51
2022/09/04 15:23:28;;;;;;;2.38;1.80;;;;;;;;;;5032093;28;20416;-52
2022/09/04 15:26:02;;;;;;;2.78;1.52;;;;;;;;;;5030142;28;20346;-52
2022/09/04 15:28:42;;;;;;;1.70;1.60;;;;;;;;;;5028765;28;20217;-52
2022/09/04 15:31:30;;;;;;;1.98;1.75;;;;;;;;;;5030180;28;20230;-52
2022/09/04 15:34:03;;;;;;;1.70;1.58;;;;;;;;;;5030982;28;20199;-52
2022/09/04 15:36:30;;;;;;;2.03;1.50;;;;;;;;;;5026434;28;20200;-54
2022/09/04 15:38:59;;;;;;;2.00;1.60;;;;;;;;;;5029528;28;20726;-53
2022/09/04 15:41:36;;;;;;;1.70;1.60;;;;;;;;;;5025511;28;20187;-50
2022/09/04 15:44:33;;;;;;;1.40;1.30;;;;;;;;;;5029976;28;20191;-51
2022/09/04 15:47:37;;;;;;;1.52;1.40;;;;;;;;;;5029636;28;20203;-54
2022/09/04 15:50:17;;;;;;;1.75;1.60;;;;;;;;;;5026874;28;20249;-53
2022/09/04 15:52:54;;;;;;;2.35;1.98;;;;;;;;;;5028661;28;20215;-55
2022/09/04 15:55:26;;;;;;;2.35;1.67;;;;;;;;;;5042733;28;20195;-53
2022/09/04 15:58:28;;;;;;;2.30;1.70;;;;;;;;;;5039931;28;20463;-50
2022/09/04 16:01:04;;;;;;;2.67;2.00;;;;;;;;;;5020699;28;20595;-51
2022/09/04 16:04:00;;;;;;;2.08;1.65;;;;;;;;;;5019110;28;20207;-51
2022/09/04 16:06:33;;;;;;;4.95;1.90;;;;;;;;;;5028971;28;20201;-53
2022/09/04 16:09:35;;;;;;;2.22;1.92;;;;;;;;;;5026775;28;20216;-53
2022/09/04 16:12:20;;;;;;;2.25;1.60;;;;;;;;;;5013968;28;20619;-52
2022/09/04 16:14:50;;;;;;;1.80;1.70;;;;;;;;;;5041518;28;20196;-51
2022/09/04 16:17:28;;;;;;;2.22;1.98;;;;;;;;;;5027337;28;20253;-53
2022/09/04 16:20:00;;;;;;;2.28;1.80;;;;;;;;;;5039748;28;20195;-50
2022/09/04 16:22:57;;;;;;;2.08;1.88;;;;;;;;;;5028772;28;20196;-50
2022/09/04 16:25:32;;;;;;;2.00;1.80;;;;;;;;;;5025385;28;20294;-53
2022/09/04 16:28:30;;;;;;;3.55;1.92;;;;;;;;;;5025914;28;20240;-54
2022/09/04 16:30:58;;;;;;;2.00;1.83;;;;;;;;;;5026386;28;20211;-50